Time;durP1;ratioP1;P1;durP2;ratioP2;P2;SDS_P1;SDS_P2;PMS_P1;PMS_P2;Temp;Humidity;BMP_temperature;BMP_pressure;BME280_temperature;BME280_humidity;BME280_pressure;Samples;Min_cycle;Max_cycle;Signal;HPM_P1;HPM_P2
2022/07/13 00:01:47;;;;;;;11.60;4.68;;;;;;;26.69;38.27;99142.41;5112651;27;20227;-76
2022/07/13 00:04:13;;;;;;;7.57;3.90;;;;;;;26.67;38.51;99139.13;5097245;27;20704;-76
2022/07/13 00:06:38;;;;;;;14.43;4.32;;;;;;;26.78;38.51;99134.50;5148605;27;20070;-74
2022/07/13 00:09:04;;;;;;;6.00;3.45;;;;;;;26.68;38.40;99137.25;5113030;27;20081;-74
2022/07/13 00:11:30;;;;;;;11.15;4.30;;;;;;;26.73;38.87;99137.22;5096441;27;20039;-74
2022/07/13 00:13:56;;;;;;;12.07;4.28;;;;;;;26.71;38.54;99139.41;5096490;27;20043;-72
2022/07/13 00:16:21;;;;;;;10.80;4.53;;;;;;;26.75;38.63;99137.75;5095888;27;20054;-74
2022/07/13 00:18:47;;;;;;;8.73;4.28;;;;;;;26.67;38.49;99132.88;5130270;27;20046;-74
2022/07/13 00:21:13;;;;;;;14.10;4.22;;;;;;;26.65;38.67;99130.41;5086885;27;20043;-75
2022/07/13 00:23:39;;;;;;;14.10;4.78;;;;;;;26.62;38.74;99130.13;5116213;27;20562;-75
2022/07/13 00:26:05;;;;;;;8.88;3.85;;;;;;;26.63;38.92;99119.00;5115866;27;20122;-75
2022/07/13 00:28:31;;;;;;;10.30;4.30;;;;;;;26.56;39.13;99129.31;5098925;27;20522;-74
2022/07/13 00:30:57;;;;;;;8.68;3.97;;;;;;;26.58;39.23;99123.59;5083002;27;20047;-74
2022/07/13 00:33:23;;;;;;;12.98;4.20;;;;;;;26.53;38.54;99127.13;5083363;27;20047;-76
2022/07/13 00:35:48;;;;;;;9.65;3.90;;;;;;;26.39;38.52;99106.97;5116638;27;20070;-76
2022/07/13 00:38:15;;;;;;;10.45;4.03;;;;;;;26.58;38.62;99129.84;5100073;27;20847;-78
2022/07/13 00:40:41;;;;;;;13.52;4.20;;;;;;;26.40;38.59;99101.25;5100670;27;20043;-76
2022/07/13 00:43:06;;;;;;;12.05;4.40;;;;;;;26.48;38.82;99127.13;5066814;27;20035;-75
2022/07/13 00:45:34;;;;;;;10.07;4.45;;;;;;;26.75;38.98;99124.97;5083219;27;20054;-74
2022/07/13 00:48:00;;;;;;;16.60;4.90;;;;;;;26.58;39.39;99124.41;5115756;27;20054;-73
2022/07/13 00:50:26;;;;;;;14.57;5.05;;;;;;;26.49;39.35;99129.56;5100316;27;20047;-72
2022/07/13 00:52:52;;;;;;;11.60;4.40;;;;;;;26.52;39.71;99123.59;5099982;27;20043;-76
2022/07/13 00:55:18;;;;;;;10.30;4.05;;;;;;;26.57;38.83;99119.25;5083067;27;20053;-75
2022/07/13 00:57:45;;;;;;;15.52;4.40;;;;;;;26.45;39.06;99136.66;5099093;27;20062;-76
2022/07/13 01:00:13;;;;;;;14.40;4.97;;;;;;;26.65;39.59;99126.91;5066710;27;20039;-77
2022/07/13 01:02:40;;;;;;;12.98;5.45;;;;;;;26.54;39.82;99119.78;5100839;27;20038;-78
2022/07/13 01:05:08;;;;;;;13.50;5.43;;;;;;;26.45;39.99;99120.31;5116794;27;20046;-77
2022/07/13 01:07:34;;;;;;;13.45;5.00;;;;;;;26.43;39.88;99127.16;5100361;27;20066;-76
2022/07/13 01:10:01;;;;;;;8.38;3.72;;;;;;;26.63;38.72;99134.47;5082550;27;20495;-77
2022/07/13 01:12:30;;;;;;;9.82;4.40;;;;;;;26.71;38.69;99120.34;5083211;27;20081;-76
2022/07/13 01:14:57;;;;;;;10.38;4.47;;;;;;;26.81;39.09;99133.94;5099047;27;20120;-77
2022/07/13 01:17:23;;;;;;;10.45;4.80;;;;;;;26.70;39.42;99126.88;5099344;27;20035;-77
2022/07/13 01:19:49;;;;;;;10.27;3.90;;;;;;;26.48;38.14;99105.34;5099578;27;20099;-76
2022/07/13 01:22:22;;;;;;;9.80;3.65;;;;;;;26.73;37.75;99104.53;5065872;27;20039;-76
2022/07/13 01:24:49;;;;;;;11.07;3.85;;;;;;;26.80;37.54;99124.16;5134454;27;20043;-77
2022/07/13 01:27:15;;;;;;;8.40;3.15;;;;;;;26.83;37.49;99118.94;5098666;27;20051;-77
2022/07/13 01:29:42;;;;;;;17.73;3.35;;;;;;;26.62;37.11;99102.91;5098363;27;20066;-76
2022/07/13 01:32:08;;;;;;;6.15;3.20;;;;;;;26.68;36.83;99120.91;5113895;28;20039;-78
2022/07/13 01:34:34;;;;;;;13.13;4.68;;;;;;;26.78;38.28;99104.53;5081517;27;20054;-77
2022/07/13 01:37:00;;;;;;;12.73;5.95;;;;;;;27.01;38.68;99123.81;5082389;27;20039;-76
2022/07/13 01:39:26;;;;;;;9.65;4.75;;;;;;;26.86;38.61;99120.31;5099566;27;20047;-76
2022/07/13 01:41:52;;;;;;;13.98;5.30;;;;;;;26.82;38.96;99120.03;5099572;27;20087;-77
2022/07/13 01:44:18;;;;;;;14.02;5.05;;;;;;;26.82;38.63;99117.31;5081535;27;20035;-77
2022/07/13 01:46:44;;;;;;;11.60;5.22;;;;;;;26.85;38.91;99119.50;5097492;27;20051;-76
2022/07/13 01:49:10;;;;;;;12.82;5.10;;;;;;;26.87;38.80;99125.50;5132946;27;20309;-75
2022/07/13 01:51:38;;;;;;;13.93;5.22;;;;;;;26.96;39.05;99114.81;5081169;27;20398;-77
2022/07/13 01:54:04;;;;;;;8.75;3.38;;;;;;;26.79;37.57;99117.03;5097539;27;20594;-78
2022/07/13 01:56:30;;;;;;;9.30;3.88;;;;;;;26.87;37.49;99119.22;5098434;27;20042;-75
2022/07/13 01:58:58;;;;;;;7.32;3.60;;;;;;;26.82;37.41;99122.75;5098278;27;20046;-76
2022/07/13 02:01:25;;;;;;;9.85;3.85;;;;;;;26.91;37.43;99114.84;5082065;27;20516;-76
2022/07/13 02:03:50;;;;;;;12.98;4.22;;;;;;;26.92;37.55;99122.75;5099999;27;20491;-75
2022/07/13 02:06:16;;;;;;;13.02;4.50;;;;;;;26.97;37.63;99111.81;5100301;27;20090;-75
2022/07/13 02:08:42;;;;;;;10.02;4.10;;;;;;;27.06;37.17;99115.59;5083636;27;20055;-76
2022/07/13 02:11:18;;;;;;;10.40;3.90;;;;;;;27.27;36.26;99117.22;5086401;27;20045;-76
2022/07/13 02:13:45;;;;;;;8.13;3.28;;;;;;;27.00;36.64;99122.16;5121646;27;20035;-77
2022/07/13 02:16:14;;;;;;;11.30;3.67;;;;;;;27.01;36.80;99118.38;5121552;27;20414;-77
2022/07/13 02:18:41;;;;;;;10.52;3.65;;;;;;;26.79;36.97;99123.31;5072781;27;20043;-77
2022/07/13 02:21:07;;;;;;;10.23;3.83;;;;;;;26.62;37.40;99119.25;5089496;27;20176;-77
2022/07/13 02:23:32;;;;;;;12.25;3.60;;;;;;;26.65;37.33;99119.50;5091621;27;20054;-78
2022/07/13 02:25:58;;;;;;;7.07;3.53;;;;;;;26.85;36.90;99124.13;5119418;27;20047;-78
2022/07/13 02:28:24;;;;;;;20.50;14.45;;;;;;;26.68;37.34;99096.38;5099609;27;20051;-77
2022/07/13 02:30:50;;;;;;;13.70;5.68;;;;;;;26.89;36.57;99106.13;5097524;27;20043;-76
2022/07/13 02:33:16;;;;;;;13.82;4.28;;;;;;;26.86;37.08;99106.69;5114412;27;20043;-76
2022/07/13 02:35:43;;;;;;;10.55;4.10;;;;;;;26.93;37.01;99101.75;5097878;27;20514;-76
2022/07/13 02:38:09;;;;;;;10.52;4.32;;;;;;;26.83;36.76;99080.00;5114305;27;20414;-77
2022/07/13 02:40:35;;;;;;;6.03;3.95;;;;;;;26.84;36.86;99097.97;5099880;27;20047;-76
2022/07/13 02:43:01;;;;;;;9.07;3.67;;;;;;;26.98;36.78;99110.75;5101282;27;20505;-78
2022/07/13 02:45:27;;;;;;;10.00;3.95;;;;;;;26.95;36.63;99111.31;5135382;27;20470;-77
2022/07/13 02:47:55;;;;;;;11.18;3.67;;;;;;;26.76;36.55;99103.97;5116115;27;20051;-77
2022/07/13 02:50:21;;;;;;;12.63;3.58;;;;;;;26.67;36.73;99100.16;5082377;27;20102;-78
2022/07/13 02:52:47;;;;;;;14.82;3.55;;;;;;;26.64;36.58;99087.09;5098117;27;20440;-78
2022/07/13 02:55:13;;;;;;;6.30;2.90;;;;;;;26.77;36.53;99090.06;5097490;27;20039;-78
2022/07/13 02:57:41;;;;;;;9.20;2.97;;;;;;;26.76;36.50;99098.50;5063845;27;20050;-77
2022/07/13 03:00:09;;;;;;;8.57;3.60;;;;;;;26.80;36.94;99097.69;5098784;28;20490;-78
2022/07/13 03:02:35;;;;;;;9.82;2.95;;;;;;;26.70;36.77;99096.91;5097799;27;20130;-77
2022/07/13 03:05:03;;;;;;;9.85;3.50;;;;;;;26.73;36.83;99118.97;5113380;27;20075;-76
2022/07/13 03:07:29;;;;;;;9.18;3.13;;;;;;;26.82;36.79;99111.88;5096531;28;20046;-77
2022/07/13 03:09:57;;;;;;;7.10;3.00;;;;;;;26.78;36.81;99113.53;5079781;28;20076;-76
2022/07/13 03:12:23;;;;;;;11.85;3.10;;;;;;;26.77;37.29;99113.78;5113959;28;20045;-76
2022/07/13 03:14:51;;;;;;;10.88;3.13;;;;;;;26.81;36.64;99115.69;5114431;28;20543;-76
2022/07/13 03:17:19;;;;;;;6.82;3.13;;;;;;;26.95;36.78;99115.94;5080579;28;20046;-77
2022/07/13 03:19:45;;;;;;;8.20;3.22;;;;;;;26.98;36.76;99115.38;5096551;28;20054;-77
2022/07/13 03:22:11;;;;;;;13.23;4.72;;;;;;;27.18;36.81;99118.88;5096647;28;20593;-76
2022/07/13 03:24:38;;;;;;;9.85;2.92;;;;;;;27.28;36.49;99124.31;5096192;28;20410;-75
2022/07/13 03:27:05;;;;;;;5.80;3.15;;;;;;;27.44;36.30;99125.06;5096795;28;20089;-75
2022/07/13 03:29:32;;;;;;;11.80;4.30;;;;;;;27.58;36.65;99120.63;5096632;28;20106;-76
2022/07/13 03:31:57;;;;;;;17.95;5.05;;;;;;;27.65;36.46;99110.22;5113274;28;20669;-77
2022/07/13 03:34:24;;;;;;;9.90;3.63;;;;;;;27.83;36.30;99134.16;5096562;28;20058;-77
2022/07/13 03:36:50;;;;;;;16.10;3.58;;;;;;;27.79;36.07;99117.50;5080193;28;20039;-76
2022/07/13 03:39:17;;;;;;;7.88;4.05;;;;;;;27.87;36.51;99130.59;5079671;28;20414;-75
2022/07/13 03:41:43;;;;;;;6.82;3.45;;;;;;;27.98;36.28;99120.44;5079398;28;20040;-75
2022/07/13 03:44:12;;;;;;;7.72;3.80;;;;;;;28.05;36.09;99118.19;5113534;28;20039;-75
2022/07/13 03:46:39;;;;;;;8.23;3.70;;;;;;;27.87;35.91;99125.16;5096626;28;20047;-75
2022/07/13 03:49:05;;;;;;;9.40;3.63;;;;;;;27.79;35.59;99127.59;5097219;28;20065;-74
2022/07/13 03:51:31;;;;;;;13.35;4.18;;;;;;;27.58;36.06;99093.34;5114191;28;20506;-75
2022/07/13 03:53:56;;;;;;;8.35;4.32;;;;;;;27.45;36.45;99111.16;5115048;28;20031;-75
2022/07/13 03:56:22;;;;;;;7.63;3.70;;;;;;;27.55;36.09;99118.47;5108004;27;20456;-75
2022/07/13 03:58:48;;;;;;;14.27;4.18;;;;;;;27.63;36.06;99123.34;5114534;27;20053;-76
2022/07/13 04:01:17;;;;;;;7.97;4.40;;;;;;;27.91;35.98;99117.19;5114753;27;20517;-74
2022/07/13 04:03:43;;;;;;;9.35;3.20;;;;;;;27.62;36.02;99125.25;5107780;27;20047;-76
2022/07/13 04:06:10;;;;;;;6.40;3.28;;;;;;;27.60;35.87;99123.91;5101299;27;20202;-76
2022/07/13 04:08:36;;;;;;;5.20;3.10;;;;;;;27.85;35.59;99121.00;5135669;27;20054;-77
2022/07/13 04:11:02;;;;;;;9.52;3.25;;;;;;;27.70;35.89;99124.66;5100407;27;20051;-77
2022/07/13 04:13:27;;;;;;;10.18;3.40;;;;;;;27.70;35.40;99112.94;5082797;27;20049;-77
2022/07/13 04:15:54;;;;;;;5.78;2.88;;;;;;;27.84;35.48;99125.69;5083657;27;20046;-77
2022/07/13 04:18:21;;;;;;;10.80;3.90;;;;;;;28.03;35.39;99117.69;5083825;27;20498;-76
2022/07/13 04:20:46;;;;;;;5.60;3.22;;;;;;;28.13;35.05;99125.78;5084083;27;20127;-76
2022/07/13 04:23:15;;;;;;;4.53;2.92;;;;;;;28.25;35.18;99128.97;5067596;27;20051;-76
2022/07/13 04:25:41;;;;;;;11.82;3.50;;;;;;;28.17;35.05;99134.22;5085116;27;20499;-76
2022/07/13 04:28:07;;;;;;;4.70;2.83;;;;;;;28.25;35.18;99142.63;5101402;27;20119;-77
2022/07/13 04:30:33;;;;;;;8.57;2.80;;;;;;;28.26;34.98;99130.63;5083633;27;20039;-73
2022/07/13 04:33:00;;;;;;;8.50;2.67;;;;;;;28.57;34.54;99125.75;5084915;27;20467;-76
2022/07/13 04:35:26;;;;;;;9.10;3.83;;;;;;;28.60;34.51;99127.91;5085022;27;20046;-75
2022/07/13 04:37:54;;;;;;;7.68;2.70;;;;;;;28.47;34.63;99126.66;5086141;27;20069;-75
2022/07/13 04:40:20;;;;;;;11.52;3.45;;;;;;;28.65;34.56;99125.09;5102865;27;20039;-76
2022/07/13 04:42:47;;;;;;;8.05;2.63;;;;;;;28.46;34.14;99143.28;5084459;27;20074;-76
2022/07/13 04:45:18;;;;;;;7.68;3.13;;;;;;;28.48;34.57;99131.00;5100391;27;20115;-74
2022/07/13 04:47:46;;;;;;;6.40;3.15;;;;;;;28.25;34.59;99107.13;5084240;27;20179;-75
2022/07/13 04:50:12;;;;;;;9.13;2.70;;;;;;;28.34;34.78;99130.00;5083825;27;20079;-75
2022/07/13 04:52:43;;;;;;;9.05;3.00;;;;;;;28.48;34.67;99125.53;5084570;27;20051;-75
2022/07/13 04:55:09;;;;;;;6.90;2.83;;;;;;;28.72;34.68;99111.94;5082952;27;20158;-78
2022/07/13 04:57:38;;;;;;;9.77;2.90;;;;;;;29.25;33.76;99128.06;5071799;27;20492;-76
2022/07/13 05:00:06;;;;;;;7.75;3.30;;;;;;;28.82;33.86;99129.03;5093876;28;20097;-75
2022/07/13 05:02:33;;;;;;;10.77;2.88;;;;;;;28.86;34.22;99127.34;5060823;28;20480;-76
2022/07/13 05:04:58;;;;;;;6.88;2.88;;;;;;;29.08;34.03;99124.97;5044012;28;20035;-75
2022/07/13 05:07:24;;;;;;;6.68;3.45;;;;;;;29.00;34.10;99122.84;5077658;28;20096;-75
2022/07/13 05:09:50;;;;;;;9.75;2.83;;;;;;;28.80;34.60;99128.50;5060863;28;20062;-75
2022/07/13 05:12:16;;;;;;;9.65;2.50;;;;;;;29.09;34.23;99115.66;5078298;28;20066;-74
2022/07/13 05:14:42;;;;;;;11.48;3.47;;;;;;;29.42;33.82;99125.66;5061157;28;20051;-75
2022/07/13 05:17:09;;;;;;;7.10;2.97;;;;;;;29.44;33.29;99106.22;5063226;28;20036;-75
2022/07/13 05:19:35;;;;;;;6.40;3.05;;;;;;;29.66;33.58;99119.38;5080198;28;20040;-76
2022/07/13 05:22:02;;;;;;;9.88;3.15;;;;;;;29.61;33.01;99106.53;5081010;28;20062;-75
2022/07/13 05:24:28;;;;;;;8.38;3.55;;;;;;;29.37;33.16;99103.84;5080306;28;20077;-76
2022/07/13 05:26:54;;;;;;;6.80;2.83;;;;;;;29.40;33.14;99107.91;5061591;28;20082;-75
2022/07/13 05:29:20;;;;;;;6.45;3.28;;;;;;;29.35;33.37;99099.78;5060865;28;20158;-75
2022/07/13 05:31:46;;;;;;;4.93;2.85;;;;;;;29.14;33.42;99082.78;5060862;28;20043;-75
2022/07/13 05:34:12;;;;;;;10.32;3.05;;;;;;;29.03;33.47;99089.44;5077935;28;20066;-75
2022/07/13 05:36:45;;;;;;;9.35;3.55;;;;;;;29.22;33.21;99095.00;5079505;28;20096;-79
2022/07/13 05:39:10;;;;;;;11.20;2.65;;;;;;;29.74;32.74;99110.50;5060885;28;20526;-74
2022/07/13 05:41:36;;;;;;;11.80;3.05;;;;;;;29.99;32.56;99099.16;5094093;28;20047;-73
2022/07/13 05:44:03;;;;;;;12.48;3.30;;;;;;;30.23;32.24;99103.47;5093534;28;20058;-73
2022/07/13 05:46:31;;;;;;;8.18;3.42;;;;;;;30.44;31.96;99099.31;5059654;28;20043;-73
2022/07/13 05:48:57;;;;;;;8.70;3.40;;;;;;;30.56;31.18;99102.38;5060105;28;20173;-73
2022/07/13 05:51:24;;;;;;;8.50;3.17;;;;;;;30.59;30.77;99095.47;5043014;28;20543;-71
2022/07/13 05:53:52;;;;;;;10.25;3.42;;;;;;;30.74;30.59;99097.94;5093248;28;20040;-73
2022/07/13 05:56:19;;;;;;;14.25;3.88;;;;;;;30.84;30.24;99073.94;5093516;28;20047;-72
2022/07/13 05:58:44;;;;;;;9.98;4.13;;;;;;;31.13;30.10;99095.56;5093372;28;20047;-73
2022/07/13 06:01:12;;;;;;;16.60;4.90;;;;;;;31.38;29.60;99094.28;5059190;28;20046;-73
2022/07/13 06:03:38;;;;;;;11.77;4.00;;;;;;;31.25;29.25;99093.13;5111347;28;20192;-73
2022/07/13 06:06:03;;;;;;;9.52;4.38;;;;;;;30.65;29.67;99095.09;5093289;28;20078;-73
2022/07/13 06:08:29;;;;;;;6.95;4.00;;;;;;;30.84;29.93;99097.78;5059830;28;20255;-73
2022/07/13 06:10:55;;;;;;;7.25;4.20;;;;;;;30.84;29.33;99095.88;5093510;28;20518;-73
2022/07/13 06:13:21;;;;;;;13.60;4.68;;;;;;;31.16;29.13;99078.50;5057382;28;20042;-74
2022/07/13 06:15:46;;;;;;;9.75;4.30;;;;;;;31.25;29.29;99097.78;5065314;28;20048;-73
2022/07/13 06:18:12;;;;;;;7.82;3.95;;;;;;;31.40;29.61;99087.34;5058755;28;20039;-74
2022/07/13 06:20:38;;;;;;;10.05;3.65;;;;;;;31.38;28.64;99084.13;5092847;28;20100;-74
2022/07/13 06:23:09;;;;;;;6.00;2.28;;;;;;;31.31;28.28;99091.94;5058661;28;20088;-76
2022/07/13 06:25:36;;;;;;;7.25;2.67;;;;;;;31.65;28.36;99081.31;5059826;28;20096;-75
2022/07/13 06:28:02;;;;;;;7.43;3.15;;;;;;;31.98;28.57;99087.47;5042483;28;20043;-75
2022/07/13 06:30:28;;;;;;;9.18;2.90;;;;;;;31.86;27.95;99093.47;5058331;28;20039;-72
2022/07/13 06:32:54;;;;;;;5.72;3.15;;;;;;;32.17;27.50;99090.81;5058889;28;20054;-74
2022/07/13 06:35:20;;;;;;;10.60;2.80;;;;;;;32.25;27.60;99087.34;5042543;28;20032;-74
2022/07/13 06:37:46;;;;;;;7.53;2.10;;;;;;;32.38;26.88;99089.25;5092823;28;20046;-72
2022/07/13 06:40:12;;;;;;;2.63;1.58;;;;;;;32.70;25.89;99083.47;5042080;28;20411;-72
2022/07/13 06:42:38;;;;;;;3.70;1.42;;;;;;;32.49;25.25;99093.38;5075319;28;20481;-72
2022/07/13 06:45:04;;;;;;;3.08;1.25;;;;;;;32.56;25.28;99101.97;5058394;28;20040;-72
2022/07/13 06:47:30;;;;;;;4.35;1.42;;;;;;;32.37;25.34;99082.94;5092063;28;20737;-71
2022/07/13 06:49:56;;;;;;;4.95;1.17;;;;;;;32.08;25.22;99109.19;5041564;28;20047;-70
2022/07/13 06:52:22;;;;;;;4.45;1.23;;;;;;;31.93;25.69;99093.88;5057501;28;20582;-71
2022/07/13 06:54:48;;;;;;;7.45;1.27;;;;;;;31.69;25.92;99098.00;5075524;28;20036;-72
2022/07/13 06:57:14;;;;;;;1.50;1.30;;;;;;;31.74;26.00;99078.63;5058949;28;20169;-73
2022/07/13 06:59:39;;;;;;;5.18;1.50;;;;;;;31.99;26.15;99084.41;5075236;28;20048;-72
2022/07/13 07:02:05;;;;;;;2.58;1.30;;;;;;;31.93;25.49;99079.34;5041692;28;20035;-72
2022/07/13 07:04:31;;;;;;;6.63;1.33;;;;;;;32.21;25.55;99083.59;5074804;28;20044;-72
2022/07/13 07:06:57;;;;;;;6.60;1.42;;;;;;;32.33;24.84;99081.09;5058558;28;20039;-73
2022/07/13 07:09:23;;;;;;;3.78;1.25;;;;;;;32.24;24.77;99077.47;5075104;28;20047;-72
2022/07/13 07:11:49;;;;;;;3.45;1.15;;;;;;;31.74;24.76;99095.94;5087966;28;20100;-73
2022/07/13 07:14:15;;;;;;;4.68;1.35;;;;;;;31.69;25.43;99068.56;5056165;28;20455;-73
2022/07/13 07:16:42;;;;;;;2.78;1.10;;;;;;;31.32;24.54;99082.59;5077592;28;20071;-72
2022/07/13 07:19:08;;;;;;;1.88;1.00;;;;;;;31.17;24.60;99073.84;5076339;28;20047;-72
2022/07/13 07:21:36;;;;;;;3.53;1.30;;;;;;;31.32;24.60;99059.81;5058130;28;20043;-72
2022/07/13 07:24:03;;;;;;;4.30;1.15;;;;;;;31.53;24.25;99077.47;5111491;28;20051;-72
2022/07/13 07:26:30;;;;;;;8.73;1.65;;;;;;;31.84;24.07;99072.97;5094931;28;20145;-73
2022/07/13 07:28:56;;;;;;;2.97;1.40;;;;;;;31.60;24.38;99073.19;5078649;28;20051;-72
2022/07/13 07:31:23;;;;;;;4.22;1.30;;;;;;;32.03;24.23;99065.38;5095885;27;20038;-73
2022/07/13 07:33:52;;;;;;;4.35;1.63;;;;;;;32.65;23.40;99067.91;5084085;27;20035;-71
2022/07/13 07:36:38;;;;;;;4.20;1.30;;;;;;;33.32;22.05;99084.25;5102060;27;20043;-73
2022/07/13 07:39:04;;;;;;;1.67;0.98;;;;;;;33.31;21.84;99071.59;5099023;27;20240;-73
2022/07/13 07:41:30;;;;;;;4.25;1.30;;;;;;;33.60;21.22;99080.91;5081156;27;20046;-72
2022/07/13 07:43:56;;;;;;;5.75;1.13;;;;;;;34.39;20.32;99077.88;5081642;27;20046;-73
2022/07/13 07:46:22;;;;;;;7.40;1.20;;;;;;;34.32;20.06;99066.53;5083873;27;20138;-73
2022/07/13 07:48:51;;;;;;;1.67;1.10;;;;;;;34.10;19.84;99089.56;5081792;27;20071;-73
2022/07/13 07:51:17;;;;;;;1.63;0.93;;;;;;;35.46;17.96;99063.53;5065070;27;20156;-74
2022/07/13 07:53:43;;;;;;;4.10;1.00;;;;;;;37.13;16.66;99084.81;5065042;27;20179;-73
2022/07/13 07:56:12;;;;;;;4.25;1.20;;;;;;;38.51;15.36;99096.25;5098190;27;20551;-73
2022/07/13 07:58:38;;;;;;;4.50;1.13;;;;;;;39.77;14.11;99068.13;5115780;27;20082;-74
2022/07/13 08:01:04;;;;;;;3.10;1.10;;;;;;;39.77;13.59;99070.91;5112082;27;20053;-73
2022/07/13 08:03:30;;;;;;;3.72;1.10;;;;;;;41.03;12.70;99071.84;5077812;27;20090;-74
2022/07/13 08:05:57;;;;;;;5.07;0.90;;;;;;;41.68;11.83;99076.13;5095308;27;20107;-73
2022/07/13 08:08:24;;;;;;;4.70;1.02;;;;;;;42.14;11.78;99069.19;5061236;27;20575;-75
2022/07/13 08:10:50;;;;;;;7.97;1.35;;;;;;;42.40;11.47;99080.28;5060884;27;20086;-74
2022/07/13 08:13:16;;;;;;;2.85;0.88;;;;;;;43.11;10.92;99067.88;5077806;27;20042;-74
2022/07/13 08:15:42;;;;;;;4.40;0.80;;;;;;;43.96;10.57;99074.88;5053550;28;20569;-74
2022/07/13 08:18:09;;;;;;;5.40;1.00;;;;;;;44.03;10.28;99078.50;5045587;28;20043;-74
2022/07/13 08:20:35;;;;;;;5.00;0.90;;;;;;;43.31;10.21;99062.81;5062041;28;20036;-76
2022/07/13 08:23:01;;;;;;;4.45;1.00;;;;;;;43.14;10.45;99076.31;5094998;28;20043;-74
2022/07/13 08:25:26;;;;;;;2.47;0.90;;;;;;;42.53;10.89;99078.03;5061046;28;20499;-75
2022/07/13 08:27:52;;;;;;;5.85;0.90;;;;;;;42.81;10.49;99072.78;5077596;28;20032;-74
2022/07/13 08:30:19;;;;;;;2.78;0.90;;;;;;;43.14;11.04;99058.72;5061212;28;20138;-74
2022/07/13 08:32:45;;;;;;;3.33;1.08;;;;;;;43.88;10.16;99070.44;5061736;28;20138;-74
2022/07/13 08:40:41;;;;;;;9.65;1.10;;;;;;;47.33;7.43;99026.50;5094939;28;20047;-73
2022/07/13 08:43:07;;;;;;;3.67;1.02;;;;;;;47.67;7.42;99033.00;5060957;28;20063;-74
2022/07/13 08:45:33;;;;;;;2.17;1.10;;;;;;;47.73;7.75;99050.22;5061125;28;20075;-74
2022/07/13 08:48:00;;;;;;;1.35;0.90;;;;;;;48.13;7.61;99018.38;5094892;28;20044;-75
2022/07/13 08:50:27;;;;;;;1.35;0.68;;;;;;;47.72;7.55;99049.41;5078193;28;20499;-75
2022/07/13 08:52:54;;;;;;;3.15;0.80;;;;;;;45.09;9.02;99042.41;5077923;28;20067;-74
2022/07/13 08:55:20;;;;;;;2.28;0.77;;;;;;;44.99;9.10;99013.13;5044340;28;20044;-74
2022/07/13 08:57:46;;;;;;;2.15;0.90;;;;;;;45.07;9.59;99014.75;5078084;28;20061;-74
2022/07/13 09:00:13;;;;;;;4.80;1.20;;;;;;;45.50;9.51;99021.13;5063851;28;20126;-74
2022/07/13 09:02:42;;;;;;;1.98;0.90;;;;;;;45.66;9.22;99030.69;5062091;28;20035;-74
2022/07/13 09:05:08;;;;;;;4.05;1.00;;;;;;;45.74;9.00;99023.84;5060857;28;20043;-75
2022/07/13 09:07:35;;;;;;;1.55;0.80;;;;;;;46.20;8.63;99026.50;5060675;28;20573;-74
2022/07/13 09:10:02;;;;;;;3.38;0.90;;;;;;;46.04;8.04;99028.97;5081333;28;20418;-73
2022/07/13 09:12:30;;;;;;;0.70;0.70;;;;;;;45.77;8.45;98997.81;5059430;28;20067;-73
2022/07/13 09:15:02;;;;;;;2.25;1.20;;;;;;;46.02;8.40;99018.16;5095623;27;20175;-74
2022/07/13 09:17:36;;;;;;;5.07;0.80;;;;;;;46.76;8.13;99059.09;5114247;27;20042;-75
2022/07/13 09:20:17;;;;;;;1.88;0.80;;;;;;;47.36;7.69;99026.47;5081658;28;20082;-73
2022/07/13 09:22:52;;;;;;;4.22;1.08;;;;;;;47.95;7.64;99000.91;5094106;28;20079;-74
2022/07/13 09:25:37;;;;;;;1.38;0.85;;;;;;;48.04;6.96;99016.06;5076838;28;20043;-74
2022/07/13 09:28:04;;;;;;;3.08;0.90;;;;;;;48.00;7.02;99022.97;5082218;28;20042;-75
2022/07/13 09:30:30;;;;;;;1.00;0.80;;;;;;;46.84;7.51;99038.94;5084934;28;20047;-75
2022/07/13 09:32:58;;;;;;;2.22;0.85;;;;;;;46.80;7.35;99018.50;5066787;27;20035;-74
2022/07/13 09:35:39;;;;;;;2.35;0.80;;;;;;;47.83;7.45;99005.03;5093997;28;20063;-73
2022/07/13 09:38:05;;;;;;;6.57;1.05;;;;;;;47.80;7.16;99016.34;5061366;28;20051;-75
2022/07/13 09:40:31;;;;;;;5.80;1.23;;;;;;;45.94;8.08;99010.16;5077871;27;20055;-73
2022/07/13 09:48:26;;;;;;;4.07;0.82;;;;;;;39.48;13.33;98974.13;5082080;27;20077;-74
2022/07/13 09:50:54;;;;;;;1.42;0.70;;;;;;;39.26;13.81;98979.56;5079549;27;20415;-74
2022/07/13 09:53:34;;;;;;;5.55;1.00;;;;;;;40.88;12.58;98994.78;5078110;27;20043;-73
2022/07/13 09:56:01;;;;;;;3.63;1.02;;;;;;;42.20;11.42;98988.69;5079149;27;20035;-74
2022/07/13 09:58:28;;;;;;;3.08;1.15;;;;;;;43.89;10.25;98980.47;5079687;27;20542;-75
2022/07/13 10:00:58;;;;;;;4.65;0.80;;;;;;;44.24;10.10;98982.59;5079668;27;20043;-74
2022/07/13 10:03:25;;;;;;;3.42;0.90;;;;;;;42.32;11.36;98994.84;5112815;27;20043;-74
2022/07/13 10:05:52;;;;;;;2.47;0.80;;;;;;;39.44;13.38;98986.34;5095727;27;20047;-74
2022/07/13 10:08:18;;;;;;;1.50;1.02;;;;;;;38.53;14.02;98976.53;5113222;27;20035;-73
2022/07/13 10:10:48;;;;;;;4.35;1.02;;;;;;;39.80;13.00;98986.72;5096558;27;20468;-73
2022/07/13 10:13:14;;;;;;;4.55;1.05;;;;;;;41.49;12.27;98957.09;5112215;27;20039;-74
2022/07/13 10:15:41;;;;;;;10.35;1.48;;;;;;;42.96;11.45;98976.69;5068872;27;20200;-75
2022/07/13 10:18:09;;;;;;;2.95;0.70;;;;;;;43.64;10.52;98964.78;5076022;28;20046;-75
2022/07/13 10:20:37;;;;;;;5.30;1.10;;;;;;;45.34;9.92;98961.81;5076117;28;20052;-75
2022/07/13 10:23:03;;;;;;;2.33;1.00;;;;;;;47.15;8.31;98963.94;5049073;27;20039;-75
2022/07/13 10:25:43;;;;;;;4.28;1.10;;;;;;;48.00;7.63;98969.44;5042042;28;20046;-74
2022/07/13 10:28:11;;;;;;;1.65;0.70;;;;;;;45.82;8.73;98954.47;5076163;28;20040;-75
2022/07/13 10:30:37;;;;;;;1.17;0.63;;;;;;;43.79;9.45;98953.25;5048252;27;20043;-74
2022/07/13 10:33:19;;;;;;;5.32;1.00;;;;;;;42.96;9.94;98957.13;5061774;27;20488;-75
2022/07/13 10:35:54;;;;;;;1.83;0.95;;;;;;;42.20;10.48;98941.22;5095171;27;20043;-74
2022/07/13 10:38:22;;;;;;;3.83;0.88;;;;;;;43.37;9.92;98938.22;5062555;27;20035;-74
2022/07/13 10:40:49;;;;;;;3.42;0.82;;;;;;;45.28;9.28;98935.38;5113795;27;20114;-75
2022/07/13 10:43:16;;;;;;;3.95;0.80;;;;;;;46.27;8.33;98953.44;5079681;27;20051;-74
2022/07/13 10:45:52;;;;;;;2.00;1.00;;;;;;;46.08;8.41;98954.72;5129363;27;20043;-74
2022/07/13 10:48:29;;;;;;;1.73;0.90;;;;;;;46.34;8.15;98930.91;5094496;27;20078;-75
2022/07/13 10:50:57;;;;;;;0.82;0.80;;;;;;;46.33;7.69;98939.75;5095806;27;20130;-75
2022/07/13 10:53:38;;;;;;;1.60;0.65;;;;;;;43.96;8.98;98943.31;5112929;27;20049;-72
2022/07/13 10:56:18;;;;;;;1.58;0.70;;;;;;;41.98;10.60;98917.09;5078835;27;20039;-74
2022/07/13 10:58:46;;;;;;;4.80;0.90;;;;;;;41.59;11.08;98920.22;5112835;27;20530;-74
2022/07/13 11:01:30;;;;;;;1.13;0.70;;;;;;;42.20;10.62;98932.84;5095838;27;20047;-74
2022/07/13 11:03:56;;;;;;;1.33;0.70;;;;;;;42.13;10.15;98907.69;5078995;28;20410;-74
2022/07/13 11:06:23;;;;;;;2.40;0.93;;;;;;;42.15;10.31;98922.06;5078499;28;20051;-74
2022/07/13 11:09:25;;;;;;;1.42;0.77;;;;;;;41.59;10.58;98911.88;5084576;28;20433;-74
2022/07/13 11:11:53;;;;;;;4.13;0.80;;;;;;;41.29;10.99;98919.41;4987690;28;20033;-74
2022/07/13 11:14:40;;;;;;;4.55;0.80;;;;;;;40.52;11.54;98925.72;5076287;28;20583;-74
2022/07/13 11:17:17;;;;;;;3.70;0.90;;;;;;;39.13;12.87;98920.53;5062570;28;20051;-75
2022/07/13 11:19:54;;;;;;;2.50;0.80;;;;;;;38.03;15.01;98913.34;5069758;28;20046;-76
2022/07/13 11:22:21;;;;;;;2.03;0.80;;;;;;;37.11;15.50;98900.75;5131016;28;20091;-75
2022/07/13 11:25:15;;;;;;;4.88;0.90;;;;;;;36.57;16.10;98893.84;5112650;28;20551;-76
2022/07/13 11:27:51;;;;;;;5.72;1.00;;;;;;;35.97;17.12;98899.31;5096805;28;20043;-74
2022/07/13 11:30:26;;;;;;;2.97;0.93;;;;;;;36.55;16.58;98910.78;5079516;28;20065;-76
2022/07/13 11:32:52;;;;;;;2.78;1.00;;;;;;;36.30;16.26;98916.66;5094268;28;20040;-74
2022/07/13 11:35:18;;;;;;;2.88;1.10;;;;;;;36.13;16.84;98900.25;5063681;28;20054;-74
2022/07/13 11:37:44;;;;;;;2.85;0.88;;;;;;;36.15;16.95;98900.72;5096125;28;20043;-74
2022/07/13 11:40:12;;;;;;;2.85;0.70;;;;;;;35.71;17.14;98894.81;5079719;28;20121;-76
2022/07/13 11:42:38;;;;;;;4.00;0.75;;;;;;;35.63;17.38;98895.72;5079197;28;20043;-76
2022/07/13 11:45:04;;;;;;;1.02;0.70;;;;;;;35.69;16.28;98918.41;5074984;28;20077;-74